Time;durP1;ratioP1;P1;durP2;ratioP2;P2;SDS_P1;SDS_P2;PMS_P1;PMS_P2;Temp;Humidity;BMP_temperature;BMP_pressure;BME280_temperature;BME280_humidity;BME280_pressure;Samples;Min_cycle;Max_cycle;Signal;HPM_P1;HPM_P2
2023/07/25 00:00:27;;;;;;;6.30;1.98;;;17.00;99.90;;;;;;5068645;28;20509;-69
2023/07/25 00:02:52;;;;;;;6.13;1.83;;;17.10;99.90;;;;;;5068914;28;20405;-69
2023/07/25 00:05:18;;;;;;;8.80;2.20;;;17.10;99.90;;;;;;5068861;28;20478;-68
2023/07/25 00:07:43;;;;;;;6.97;2.00;;;17.00;99.90;;;;;;5079882;28;20489;-68
2023/07/25 00:10:09;;;;;;;7.50;2.60;;;16.90;99.90;;;;;;5089547;28;20419;-69
2023/07/25 00:12:36;;;;;;;9.48;2.30;;;16.90;99.90;;;;;;5088753;28;20389;-69
2023/07/25 00:15:02;;;;;;;6.13;2.28;;;16.90;99.90;;;;;;5089840;28;20405;-69
2023/07/25 00:17:28;;;;;;;8.48;2.40;;;16.90;99.90;;;;;;5075090;28;20443;-69
2023/07/25 00:19:54;;;;;;;9.20;1.87;;;16.90;99.90;;;;;;5068429;28;20396;-69
2023/07/25 00:22:20;;;;;;;8.35;2.50;;;16.90;99.90;;;;;;5068448;28;20396;-68
2023/07/25 00:24:46;;;;;;;6.00;2.10;;;16.90;99.90;;;;;;5068736;28;20407;-69
2023/07/25 00:27:11;;;;;;;8.17;2.10;;;16.90;99.90;;;;;;5068308;28;20388;-68
2023/07/25 00:29:37;;;;;;;6.73;2.37;;;16.90;99.90;;;;;;5074162;28;20417;-68
2023/07/25 00:32:02;;;;;;;6.67;2.50;;;16.90;99.90;;;;;;5089115;28;20894;-68
2023/07/25 00:34:28;;;;;;;6.47;1.90;;;16.90;99.90;;;;;;5088237;28;20389;-68
2023/07/25 00:36:53;;;;;;;5.77;2.13;;;17.00;99.90;;;;;;5068826;28;20388;-68
2023/07/25 00:39:19;;;;;;;7.23;2.40;;;17.00;99.90;;;;;;5068931;28;20384;-68
2023/07/25 00:41:45;;;;;;;6.93;2.77;;;17.00;99.90;;;;;;5068701;28;20392;-69
2023/07/25 00:44:10;;;;;;;9.73;2.60;;;17.10;99.90;;;;;;5068130;28;20809;-69
2023/07/25 00:46:36;;;;;;;9.50;2.83;;;17.10;99.90;;;;;;5068140;28;20399;-69
2023/07/25 00:49:03;;;;;;;8.47;2.93;;;17.10;99.90;;;;;;5068804;28;20988;-69
2023/07/25 00:51:29;;;;;;;5.90;1.70;;;17.10;99.90;;;;;;5068284;28;20415;-69
2023/07/25 00:53:55;;;;;;;7.72;1.92;;;17.10;99.90;;;;;;5068172;28;20435;-69
2023/07/25 00:56:21;;;;;;;4.97;1.75;;;17.10;99.90;;;;;;5068587;28;20399;-69
2023/07/25 00:58:47;;;;;;;7.30;2.58;;;17.10;99.90;;;;;;5068058;28;20388;-69
2023/07/25 01:01:13;;;;;;;7.10;2.70;;;17.10;99.90;;;;;;5082111;28;20417;-69
2023/07/25 01:03:39;;;;;;;7.13;2.10;;;17.20;99.90;;;;;;5088514;28;20766;-69
2023/07/25 01:06:11;;;;;;;10.88;2.50;;;17.20;99.90;;;;;;5088355;28;20401;-69
2023/07/25 01:08:56;;;;;;;7.60;2.30;;;17.20;99.90;;;;;;5087008;28;20425;-69
2023/07/25 01:11:23;;;;;;;7.15;2.50;;;17.20;99.90;;;;;;5068190;28;20390;-69
2023/07/25 01:13:49;;;;;;;8.23;1.95;;;17.10;99.90;;;;;;5067912;28;20896;-69
2023/07/25 01:16:21;;;;;;;7.25;1.80;;;17.20;99.90;;;;;;5082120;28;20400;-69
2023/07/25 01:18:48;;;;;;;8.82;2.22;;;17.20;99.90;;;;;;5087833;28;20401;-69
2023/07/25 01:21:14;;;;;;;7.57;1.90;;;17.40;99.90;;;;;;5088188;28;20385;-69
2023/07/25 01:23:41;;;;;;;6.47;2.53;;;17.50;99.90;;;;;;5088103;28;20392;-69
2023/07/25 01:26:06;;;;;;;7.78;2.70;;;17.60;99.90;;;;;;5084898;28;20388;-69
2023/07/25 01:28:32;;;;;;;6.93;2.20;;;17.60;77.20;;;;;;5072188;28;20415;-69
2023/07/25 01:30:58;;;;;;;7.93;2.33;;;17.60;65.80;;;;;;5071765;28;20903;-69
2023/07/25 01:33:23;;;;;;;6.47;2.28;;;17.50;56.30;;;;;;5071621;28;20709;-69
2023/07/25 01:35:49;;;;;;;5.93;2.33;;;17.50;42.30;;;;;;5071516;28;20448;-69
2023/07/25 01:38:15;;;;;;;7.23;2.60;;;17.30;27.20;;;;;;5071651;28;20774;-69
2023/07/25 01:40:41;;;;;;;7.13;2.30;;;17.10;59.40;;;;;;5071418;28;20396;-69
2023/07/25 01:43:07;;;;;;;10.55;2.03;;;16.90;95.30;;;;;;5071511;28;20392;-69
2023/07/25 01:45:33;;;;;;;5.95;1.90;;;16.80;99.90;;;;;;5071947;28;20384;-69
2023/07/25 01:47:59;;;;;;;7.70;2.30;;;16.70;99.90;;;;;;5070993;28;20899;-69
2023/07/25 01:50:28;;;;;;;5.93;2.50;;;16.70;99.90;;;;;;5071318;28;20943;-69
2023/07/25 01:52:54;;;;;;;6.25;2.28;;;16.70;99.90;;;;;;5071274;28;20490;-69
2023/07/25 01:55:20;;;;;;;6.80;2.20;;;16.70;99.90;;;;;;5071160;28;20388;-69
2023/07/25 01:57:46;;;;;;;6.33;2.10;;;16.90;99.90;;;;;;5070994;28;20391;-69
2023/07/25 02:00:11;;;;;;;7.88;2.40;;;16.90;99.90;;;;;;5071357;28;20802;-69
2023/07/25 02:02:37;;;;;;;6.40;2.80;;;16.80;99.90;;;;;;5070831;28;20407;-69
2023/07/25 02:05:03;;;;;;;6.80;2.13;;;16.80;99.90;;;;;;5071650;28;20732;-69
2023/07/25 02:07:28;;;;;;;7.25;2.03;;;16.80;99.90;;;;;;5071157;28;20395;-69
2023/07/25 02:09:54;;;;;;;10.20;2.53;;;16.90;99.90;;;;;;5070792;28;20911;-69
2023/07/25 02:12:19;;;;;;;7.77;2.80;;;17.00;99.90;;;;;;5070874;28;20379;-68
2023/07/25 02:14:45;;;;;;;6.80;2.00;;;16.90;99.90;;;;;;5071023;28;20904;-69
2023/07/25 02:17:10;;;;;;;7.53;2.60;;;17.00;99.90;;;;;;5070429;28;20456;-69
2023/07/25 02:19:38;;;;;;;6.03;2.00;;;17.00;99.90;;;;;;5070738;28;20487;-69
2023/07/25 02:22:04;;;;;;;6.70;2.67;;;17.00;99.90;;;;;;5071542;28;20380;-68
2023/07/25 02:24:30;;;;;;;7.70;2.40;;;17.00;99.90;;;;;;5071485;28;20392;-68
2023/07/25 02:26:55;;;;;;;6.88;2.20;;;17.00;99.90;;;;;;5071340;28;20372;-69
2023/07/25 02:29:21;;;;;;;7.10;2.30;;;16.90;99.90;;;;;;5071294;28;20423;-69
2023/07/25 02:31:47;;;;;;;6.50;1.90;;;16.90;99.90;;;;;;5069946;28;20771;-69
2023/07/25 02:34:14;;;;;;;7.07;2.03;;;16.80;99.90;;;;;;5071178;28;20388;-69
2023/07/25 02:36:39;;;;;;;7.28;2.63;;;16.70;99.90;;;;;;5070609;28;20474;-69
2023/07/25 02:39:05;;;;;;;11.02;2.40;;;16.60;99.90;;;;;;5070783;28;20463;-69
2023/07/25 02:41:30;;;;;;;7.00;2.40;;;16.60;99.90;;;;;;5071281;28;20786;-69
2023/07/25 02:43:56;;;;;;;7.00;2.23;;;16.60;99.90;;;;;;5071155;28;20821;-69
2023/07/25 02:46:21;;;;;;;11.03;2.43;;;16.60;99.90;;;;;;5070040;28;20396;-69
2023/07/25 02:48:47;;;;;;;7.23;2.63;;;16.50;99.90;;;;;;5070409;28;20522;-69
2023/07/25 02:51:12;;;;;;;6.80;2.20;;;16.50;99.90;;;;;;5070049;28;20376;-69
2023/07/25 02:53:38;;;;;;;6.05;1.73;;;16.60;99.90;;;;;;5069912;28;20379;-69
2023/07/25 02:56:04;;;;;;;6.73;2.27;;;16.70;99.90;;;;;;5070027;28;20399;-69
2023/07/25 02:58:29;;;;;;;7.50;2.50;;;16.70;99.90;;;;;;5070785;28;20395;-69
2023/07/25 03:00:55;;;;;;;7.22;2.33;;;16.70;99.90;;;;;;5069748;28;20395;-69
2023/07/25 03:03:20;;;;;;;6.20;2.00;;;16.70;99.90;;;;;;5069729;28;20403;-69
2023/07/25 03:05:46;;;;;;;8.25;3.30;;;16.70;99.90;;;;;;5055882;28;20865;-69
2023/07/25 03:08:11;;;;;;;11.23;2.40;;;16.80;99.90;;;;;;5056000;28;20960;-69
2023/07/25 03:10:37;;;;;;;5.80;2.37;;;17.00;99.90;;;;;;5051209;28;20858;-69
2023/07/25 03:13:02;;;;;;;7.20;2.73;;;17.10;99.90;;;;;;5050587;28;20385;-69
2023/07/25 03:15:29;;;;;;;9.17;2.60;;;17.20;99.90;;;;;;5054221;28;20761;-69
2023/07/25 03:17:54;;;;;;;6.18;2.55;;;17.30;99.90;;;;;;5065297;28;20390;-69
2023/07/25 03:20:20;;;;;;;6.63;2.08;;;17.40;99.90;;;;;;5085065;28;20386;-69
2023/07/25 03:22:45;;;;;;;8.80;2.00;;;17.40;99.90;;;;;;5089812;28;20400;-69
2023/07/25 03:25:11;;;;;;;5.70;1.90;;;17.40;99.90;;;;;;5083150;28;20497;-69
2023/07/25 03:27:37;;;;;;;7.23;2.57;;;17.30;99.90;;;;;;5069571;28;20887;-70
2023/07/25 03:30:04;;;;;;;9.70;2.58;;;17.30;99.90;;;;;;5069361;28;20841;-69
2023/07/25 03:32:29;;;;;;;7.40;2.40;;;17.20;99.90;;;;;;5065685;28;20410;-69
2023/07/25 03:34:55;;;;;;;6.70;2.10;;;17.20;99.90;;;;;;5069315;28;20879;-69
2023/07/25 03:37:21;;;;;;;7.00;2.50;;;17.10;99.90;;;;;;5069232;28;20425;-69
2023/07/25 03:39:46;;;;;;;7.10;2.13;;;17.00;99.90;;;;;;5069146;28;20431;-69
2023/07/25 03:42:12;;;;;;;5.50;1.93;;;17.00;99.90;;;;;;5068403;28;20414;-69
2023/07/25 03:44:37;;;;;;;6.30;2.30;;;17.00;99.90;;;;;;5068998;28;20379;-69
2023/07/25 03:47:03;;;;;;;9.43;2.80;;;17.10;99.90;;;;;;5069315;28;20400;-68
2023/07/25 03:49:28;;;;;;;6.07;2.20;;;17.00;99.90;;;;;;5068475;28;20427;-69
2023/07/25 03:51:54;;;;;;;7.67;2.20;;;16.90;99.90;;;;;;5068179;28;20461;-69
2023/07/25 03:54:23;;;;;;;6.70;2.50;;;16.80;99.90;;;;;;5068684;28;20396;-69
2023/07/25 03:56:49;;;;;;;6.88;2.30;;;16.70;99.90;;;;;;5069021;28;20414;-69
2023/07/25 03:59:15;;;;;;;10.23;2.20;;;16.70;99.90;;;;;;5068459;28;20467;-69
2023/07/25 04:01:40;;;;;;;6.60;2.60;;;16.60;99.90;;;;;;5068990;28;20498;-69
2023/07/25 04:04:06;;;;;;;7.23;2.40;;;16.70;99.90;;;;;;5069084;28;20384;-69
2023/07/25 04:06:31;;;;;;;5.70;1.77;;;16.60;99.90;;;;;;5069194;28;20376;-69
2023/07/25 04:08:57;;;;;;;7.80;1.90;;;16.70;99.90;;;;;;5068876;28;20427;-68
2023/07/25 04:11:22;;;;;;;6.57;2.55;;;16.80;99.90;;;;;;5069089;28;20749;-69
2023/07/25 04:13:48;;;;;;;7.97;2.90;;;16.90;99.90;;;;;;5068671;28;20391;-69
2023/07/25 04:16:13;;;;;;;5.70;1.80;;;17.00;99.90;;;;;;5068396;28;20407;-69
2023/07/25 04:18:39;;;;;;;7.53;2.40;;;17.10;99.90;;;;;;5055620;28;20417;-69
2023/07/25 04:21:04;;;;;;;6.00;1.90;;;16.90;99.90;;;;;;5057583;28;20405;-69
2023/07/25 04:23:30;;;;;;;8.35;2.78;;;16.70;99.90;;;;;;5065499;28;20408;-69
2023/07/25 04:25:55;;;;;;;7.87;1.90;;;16.80;99.90;;;;;;5068026;28;20814;-69
2023/07/25 04:28:21;;;;;;;8.60;2.73;;;16.80;99.90;;;;;;5050692;28;20409;-69
2023/07/25 04:30:46;;;;;;;10.73;3.10;;;16.90;99.90;;;;;;5058050;28;20474;-69
2023/07/25 04:33:12;;;;;;;6.47;2.25;;;16.90;99.90;;;;;;5052839;28;20399;-69
2023/07/25 04:35:37;;;;;;;6.57;2.58;;;17.00;99.90;;;;;;5048475;28;20447;-69
2023/07/25 04:38:03;;;;;;;6.88;2.55;;;17.00;99.90;;;;;;5057979;28;20543;-68
2023/07/25 04:40:29;;;;;;;6.90;2.47;;;17.00;99.90;;;;;;5050919;28;20470;-69
2023/07/25 04:42:54;;;;;;;6.53;2.50;;;17.10;99.90;;;;;;5048307;28;20429;-69
2023/07/25 04:45:20;;;;;;;8.90;2.35;;;17.20;99.90;;;;;;5048913;28;20882;-68
2023/07/25 04:47:45;;;;;;;7.35;2.25;;;17.30;99.90;;;;;;5048340;28;20401;-68
2023/07/25 04:50:11;;;;;;;7.80;2.10;;;17.30;99.90;;;;;;5035630;28;20437;-68
2023/07/25 04:52:36;;;;;;;6.10;2.00;;;17.30;86.40;;;;;;5068306;28;20402;-69
2023/07/25 04:55:02;;;;;;;6.77;2.07;;;17.40;99.90;;;;;;5048048;28;20484;-68
2023/07/25 04:57:28;;;;;;;7.00;1.80;;;17.50;81.60;;;;;;5048949;28;20413;-68
2023/07/25 04:59:53;;;;;;;6.00;1.90;;;17.60;80.80;;;;;;5050603;28;20420;-68
2023/07/25 05:02:20;;;;;;;6.03;1.90;;;17.60;87.60;;;;;;5048901;28;20515;-69
2023/07/25 05:04:45;;;;;;;6.00;2.20;;;17.60;91.50;;;;;;5056130;28;20493;-69
2023/07/25 05:07:13;;;;;;;8.00;2.50;;;17.70;79.90;;;;;;5064402;28;20420;-69
2023/07/25 05:09:39;;;;;;;8.73;2.30;;;17.60;58.60;;;;;;5056540;28;20515;-69
2023/07/25 05:12:06;;;;;;;6.70;2.30;;;17.50;92.60;;;;;;5066819;28;20487;-69
2023/07/25 05:14:32;;;;;;;8.55;2.40;;;17.50;94.50;;;;;;5065814;28;20411;-68
2023/07/25 05:16:57;;;;;;;7.07;2.40;;;17.40;99.90;;;;;;5065237;28;20502;-69
2023/07/25 05:19:24;;;;;;;6.70;2.30;;;17.40;99.90;;;;;;5066046;28;20768;-68
2023/07/25 05:21:49;;;;;;;6.60;2.10;;;17.50;99.90;;;;;;5060101;28;20410;-68
2023/07/25 05:24:15;;;;;;;7.30;2.58;;;17.60;99.90;;;;;;5064527;28;20406;-69
2023/07/25 05:26:41;;;;;;;8.80;2.97;;;17.70;99.90;;;;;;5067391;28;20784;-69
2023/07/25 05:29:06;;;;;;;8.30;3.00;;;17.90;99.90;;;;;;5061833;28;20778;-69
2023/07/25 05:31:32;;;;;;;8.40;2.70;;;18.00;99.90;;;;;;5062281;28;21148;-70
2023/07/25 05:33:57;;;;;;;12.40;3.40;;;18.00;91.60;;;;;;5068201;28;20419;-68
2023/07/25 05:36:23;;;;;;;6.10;1.93;;;17.90;78.50;;;;;;5066514;28;20413;-68
2023/07/25 05:38:48;;;;;;;7.70;2.70;;;17.80;93.20;;;;;;5067157;28;20392;-68
2023/07/25 05:41:14;;;;;;;7.83;2.77;;;17.80;99.90;;;;;;5066791;28;20384;-68
2023/07/25 05:43:40;;;;;;;8.98;2.00;;;17.60;99.90;;;;;;5063542;28;20416;-68
2023/07/25 05:46:05;;;;;;;6.20;2.22;;;17.80;99.90;;;;;;5066938;28;20483;-69
2023/07/25 05:48:31;;;;;;;5.87;2.20;;;17.90;99.90;;;;;;5067323;28;20494;-68
2023/07/25 05:50:56;;;;;;;7.77;2.50;;;18.00;99.90;;;;;;5066978;28;20408;-68
2023/07/25 05:53:22;;;;;;;9.90;3.00;;;18.00;99.90;;;;;;5066879;28;20395;-68
2023/07/25 05:55:47;;;;;;;9.20;2.40;;;18.00;99.90;;;;;;5048149;28;21035;-68
2023/07/25 05:58:14;;;;;;;7.80;2.65;;;18.10;99.90;;;;;;5067727;28;20729;-68
2023/07/25 06:00:40;;;;;;;7.10;2.60;;;18.30;98.10;;;;;;5067577;28;20399;-69
2023/07/25 06:03:08;;;;;;;7.07;2.80;;;18.30;45.00;;;;;;5067848;28;20411;-69
2023/07/25 06:05:34;;;;;;;7.32;2.40;;;18.30;74.00;;;;;;5071816;28;20902;-68
2023/07/25 06:08:00;;;;;;;9.57;2.40;;;18.20;99.90;;;;;;5079839;28;20443;-68
2023/07/25 06:10:25;;;;;;;6.40;2.50;;;18.30;93.30;;;;;;5073776;28;20423;-67
2023/07/25 06:12:51;;;;;;;7.20;2.50;;;18.30;99.90;;;;;;5071378;28;20399;-68
2023/07/25 06:15:16;;;;;;;7.30;2.30;;;18.40;99.40;;;;;;5089798;28;20383;-68
2023/07/25 06:17:42;;;;;;;7.60;2.40;;;18.50;81.50;;;;;;5091391;28;20390;-68
2023/07/25 06:20:08;;;;;;;7.20;2.20;;;18.50;49.50;;;;;;5091421;28;20397;-68
2023/07/25 06:22:34;;;;;;;5.80;2.10;;;18.50;36.10;;;;;;5083673;28;20383;-68
2023/07/25 06:25:00;;;;;;;5.10;1.60;;;18.60;1.00;;;;;;5071143;28;20884;-68
2023/07/25 06:27:26;;;;;;;6.07;2.10;;;18.70;1.00;;;;;;5070639;28;20384;-68
2023/07/25 06:29:51;;;;;;;6.00;1.97;;;18.80;1.00;;;;;;5071371;28;20938;-67
2023/07/25 06:32:17;;;;;;;12.40;2.17;;;19.10;1.00;;;;;;5071329;28;21005;-67
2023/07/25 06:34:42;;;;;;;6.63;2.00;;;19.20;1.00;;;;;;5052969;28;20412;-68
2023/07/25 06:37:08;;;;;;;6.50;2.03;;;19.40;1.00;;;;;;5070520;28;20399;-68
2023/07/25 06:39:34;;;;;;;6.50;2.40;;;19.50;1.00;;;;;;5078346;28;20386;-67
2023/07/25 06:41:59;;;;;;;6.60;2.00;;;19.70;1.00;;;;;;5091267;28;20897;-68
2023/07/25 06:44:25;;;;;;;6.87;2.17;;;19.80;1.00;;;;;;5091875;28;20394;-67
2023/07/25 06:46:50;;;;;;;5.93;1.90;;;19.60;1.00;;;;;;5090645;28;20400;-67
2023/07/25 06:49:16;;;;;;;5.97;1.80;;;19.50;1.00;;;;;;5090910;28;20406;-67
2023/07/25 06:51:41;;;;;;;9.73;2.20;;;19.30;1.00;;;;;;5090940;28;20432;-68
2023/07/25 06:54:07;;;;;;;6.50;2.15;;;19.20;1.00;;;;;;5090381;28;20383;-68
2023/07/25 06:56:32;;;;;;;6.15;2.03;;;19.10;1.00;;;;;;5091113;28;20414;-68
2023/07/25 06:58:58;;;;;;;6.55;1.90;;;19.00;1.00;;;;;;5090797;28;20382;-69
2023/07/25 07:01:28;;;;;;;7.70;2.10;;;19.00;1.00;;;;;;5090496;28;20425;-68
2023/07/25 07:03:54;;;;;;;6.03;2.15;;;18.90;1.00;;;;;;5090261;28;20443;-68
2023/07/25 07:06:20;;;;;;;5.80;1.85;;;19.00;1.00;;;;;;5090561;28;20709;-68
2023/07/25 07:08:46;;;;;;;6.13;1.90;;;19.00;1.00;;;;;;5089516;28;20743;-69
2023/07/25 07:11:11;;;;;;;5.43;1.60;;;19.00;1.00;;;;;;5089963;28;20452;-68
2023/07/25 07:13:37;;;;;;;6.17;1.87;;;19.10;1.00;;;;;;5083167;28;20937;-69
2023/07/25 07:16:02;;;;;;;6.10;2.00;;;19.10;1.00;;;;;;5070235;28;20419;-68
2023/07/25 07:18:28;;;;;;;8.90;2.00;;;19.10;1.00;;;;;;5069802;28;20396;-68
2023/07/25 07:20:53;;;;;;;6.13;1.85;;;19.20;1.00;;;;;;5070046;28;20453;-68
2023/07/25 07:23:19;;;;;;;7.22;1.90;;;19.10;1.00;;;;;;5068286;28;20423;-68
2023/07/25 07:25:45;;;;;;;8.07;1.98;;;19.20;1.00;;;;;;5069587;28;20978;-68
2023/07/25 07:28:11;;;;;;;5.30;1.92;;;19.30;1.00;;;;;;5069792;28;20474;-69
2023/07/25 07:30:37;;;;;;;5.97;2.22;;;19.30;1.00;;;;;;5069094;28;20480;-69
2023/07/25 07:33:02;;;;;;;7.30;2.30;;;19.30;1.00;;;;;;5069871;28;20387;-68
2023/07/25 07:35:28;;;;;;;6.20;1.90;;;19.40;1.00;;;;;;5069567;28;20399;-68
2023/07/25 07:37:53;;;;;;;6.10;2.03;;;19.70;1.00;;;;;;5069075;28;20449;-68
2023/07/25 07:40:19;;;;;;;5.90;1.80;;;20.00;1.00;;;;;;5069504;28;20936;-68
2023/07/25 07:42:44;;;;;;;6.97;2.20;;;20.20;1.00;;;;;;5069132;28;20399;-68
2023/07/25 07:45:10;;;;;;;5.53;1.77;;;20.50;1.00;;;;;;5069273;28;20853;-68
2023/07/25 07:47:37;;;;;;;7.38;1.70;;;21.40;99.90;;;;;;5069372;28;20403;-68
2023/07/25 07:50:02;;;;;;;6.68;1.80;;;22.20;1.00;;;;;;5069988;28;20902;-68
2023/07/25 07:52:28;;;;;;;6.50;1.73;;;21.80;1.00;;;;;;5069082;28;20466;-68
2023/07/25 07:54:55;;;;;;;6.80;1.80;;;;;;;;;;5069357;28;20472;-68
2023/07/25 07:57:21;;;;;;;6.90;1.50;;;;;;;;;;5069280;28;20380;-68
2023/07/25 07:59:47;;;;;;;5.63;1.63;;;;;;;;;;5069396;28;20471;-68
2023/07/25 08:02:13;;;;;;;8.30;1.73;;;;;;;;;;5070190;28;20482;-68
2023/07/25 08:04:39;;;;;;;7.60;1.50;;;24.80;99.90;;;;;;5068712;28;20380;-68
2023/07/25 08:07:04;;;;;;;8.17;1.60;;;24.10;99.90;;;;;;5069512;28;20793;-68
2023/07/25 08:09:30;;;;;;;5.30;1.10;;;23.80;1.00;;;;;;5051669;28;20419;-68
2023/07/25 08:11:55;;;;;;;5.20;1.30;;;24.30;1.00;;;;;;5051051;28;20387;-68
2023/07/25 08:14:21;;;;;;;5.93;1.10;;;25.00;1.00;;;;;;5081840;28;20402;-68
2023/07/25 08:16:46;;;;;;;6.57;1.13;;;25.50;1.00;;;;;;5089475;28;20410;-68
2023/07/25 08:19:12;;;;;;;5.70;1.50;;;25.10;4.50;;;;;;5088947;28;20472;-68
2023/07/25 08:21:37;;;;;;;5.72;1.20;;;24.80;1.00;;;;;;5078295;28;20409;-68
2023/07/25 08:24:03;;;;;;;8.98;1.30;;;24.40;61.00;;;;;;5069180;28;20388;-68
2023/07/25 08:26:29;;;;;;;6.28;1.17;;;23.50;99.90;;;;;;5069008;28;20452;-68
2023/07/25 08:28:54;;;;;;;6.15;1.20;;;23.20;99.90;;;;;;5068960;28;20418;-68
2023/07/25 08:31:20;;;;;;;5.85;1.30;;;23.00;1.00;;;;;;5069029;28;20512;-68
2023/07/25 08:33:45;;;;;;;5.53;1.40;;;22.50;1.00;;;;;;5068305;28;20463;-68
2023/07/25 08:36:11;;;;;;;4.97;1.25;;;22.10;1.00;;;;;;5068485;28;20396;-68
2023/07/25 08:38:37;;;;;;;5.65;1.70;;;22.20;1.00;;;;;;5068664;28;20388;-69
2023/07/25 08:41:26;;;;;;;6.25;1.30;;;23.20;99.90;;;;;;5069053;28;20460;-68
2023/07/25 08:43:53;;;;;;;6.00;1.35;;;23.80;99.90;;;;;;5068808;28;20431;-68
2023/07/25 08:46:19;;;;;;;5.57;1.13;;;24.10;1.00;;;;;;5068696;28;20383;-68
2023/07/25 08:48:47;;;;;;;5.40;1.15;;;23.60;99.90;;;;;;5068873;28;20395;-68
2023/07/25 08:51:22;;;;;;;5.75;1.60;;;23.20;99.90;;;;;;5068410;28;20394;-68
2023/07/25 08:54:00;;;;;;;5.20;1.10;;;23.30;1.00;;;;;;5068500;28;20898;-69
2023/07/25 08:56:27;;;;;;;5.47;1.33;;;23.80;99.90;;;;;;5068443;28;20380;-68
2023/07/25 08:58:54;;;;;;;5.35;1.25;;;23.70;1.00;;;;;;5068651;28;20380;-68
2023/07/25 09:01:21;;;;;;;5.50;1.20;;;23.60;1.00;;;;;;5075025;28;20418;-68
2023/07/25 09:03:47;;;;;;;5.90;1.30;;;22.80;1.00;;;;;;5088158;28;20896;-68
2023/07/25 09:06:13;;;;;;;5.78;1.58;;;22.70;99.90;;;;;;5088710;28;20382;-68
2023/07/25 09:08:39;;;;;;;5.33;1.50;;;22.60;99.90;;;;;;5088549;28;20475;-68
2023/07/25 09:11:06;;;;;;;6.63;1.37;;;22.90;1.00;;;;;;5089341;28;20388;-67
2023/07/25 09:13:32;;;;;;;6.47;1.50;;;22.50;99.90;;;;;;5082516;28;20403;-68
2023/07/25 09:15:58;;;;;;;5.43;1.30;;;22.40;27.90;;;;;;5066494;28;20449;-68
2023/07/25 09:18:24;;;;;;;4.90;1.17;;;22.40;99.90;;;;;;5068053;28;20486;-68
2023/07/25 09:20:49;;;;;;;5.60;1.30;;;22.40;1.00;;;;;;5068807;28;20457;-68
2023/07/25 09:23:21;;;;;;;5.10;1.00;;;22.70;99.90;;;;;;5068102;28;20845;-69
2023/07/25 09:26:05;;;;;;;5.72;1.00;;;23.10;99.90;;;;;;5066626;28;20396;-68
2023/07/25 09:28:34;;;;;;;7.68;1.40;;;23.80;74.30;;;;;;5067571;28;20400;-68
2023/07/25 09:31:06;;;;;;;5.43;1.30;;;23.60;1.00;;;;;;5068383;28;20444;-68
2023/07/25 09:33:31;;;;;;;5.60;1.27;;;24.00;1.00;;;;;;5067792;28;20435;-68
2023/07/25 09:35:58;;;;;;;5.70;1.40;;;24.00;1.00;;;;;;5068000;28;20411;-68
2023/07/25 09:38:23;;;;;;;5.47;1.20;;;24.00;27.40;;;;;;5067199;28;20406;-68
2023/07/25 09:40:49;;;;;;;5.80;1.20;;;23.80;99.90;;;;;;5047962;28;20404;-68
2023/07/25 09:43:25;;;;;;;5.30;1.23;;;24.30;99.90;;;;;;5065062;28;20568;-69
2023/07/25 09:45:52;;;;;;;5.43;1.20;;;24.20;99.90;;;;;;5065351;28;20419;-69
2023/07/25 09:48:18;;;;;;;5.50;1.20;;;25.10;1.00;;;;;;5070487;28;20446;-69
2023/07/25 09:50:44;;;;;;;5.82;1.30;;;25.60;1.00;;;;;;5071118;28;20897;-69
2023/07/25 09:53:13;;;;;;;6.18;1.55;;;26.50;1.00;;;;;;5071365;28;20396;-69
2023/07/25 09:55:40;;;;;;;5.20;1.10;;;27.10;1.00;;;;;;5064667;28;20740;-69
2023/07/25 09:58:05;;;;;;;5.88;1.30;;;25.90;99.90;;;;;;5070328;28;20910;-70
2023/07/25 10:00:31;;;;;;;5.30;1.00;;;25.00;99.90;;;;;;5070976;28;20952;-69
2023/07/25 10:02:58;;;;;;;6.25;1.20;;;25.50;99.90;;;;;;5053484;28;20555;-69
2023/07/25 10:05:25;;;;;;;9.18;1.60;;;25.50;99.90;;;;;;5051165;28;21026;-69
2023/07/25 10:07:52;;;;;;;5.57;1.30;;;25.90;99.90;;;;;;5042022;28;20407;-69
2023/07/25 10:10:19;;;;;;;6.75;1.40;;;26.10;99.90;;;;;;5039511;28;20431;-69
2023/07/25 10:12:44;;;;;;;5.40;1.20;;;26.40;99.90;;;;;;5049714;28;20416;-69
2023/07/25 10:15:12;;;;;;;6.63;1.50;;;26.20;99.90;;;;;;5045136;28;20893;-69
2023/07/25 10:17:37;;;;;;;5.30;1.10;;;25.80;99.90;;;;;;5050346;28;20500;-69
2023/07/25 10:20:06;;;;;;;6.03;0.90;;;25.70;99.90;;;;;;5039475;28;21022;-69
2023/07/25 10:22:36;;;;;;;6.80;1.30;;;25.20;99.90;;;;;;5031247;28;20477;-69
2023/07/25 10:25:10;;;;;;;5.78;1.20;;;24.80;99.90;;;;;;5044558;28;20411;-69
2023/07/25 10:27:35;;;;;;;5.80;1.20;;;24.30;99.90;;;;;;5049330;28;20412;-68
2023/07/25 10:30:01;;;;;;;6.80;0.90;;;23.60;99.90;;;;;;5050759;28;20413;-68
2023/07/25 10:32:44;;;;;;;5.50;1.02;;;23.40;99.90;;;;;;5049645;28;20437;-69
2023/07/25 10:35:10;;;;;;;5.00;0.80;;;23.90;99.90;;;;;;5033914;28;20391;-69
2023/07/25 10:37:42;;;;;;;5.13;1.20;;;23.90;99.90;;;;;;5047771;28;20393;-69
2023/07/25 10:40:13;;;;;;;5.40;1.20;;;23.50;99.90;;;;;;5054340;28;20389;-69
2023/07/25 10:42:44;;;;;;;4.70;0.80;;;23.40;99.90;;;;;;5063338;28;20384;-69
2023/07/25 10:45:45;;;;;;;4.70;0.90;;;22.80;99.90;;;;;;5064947;28;20397;-68
2023/07/25 10:48:33;;;;;;;4.90;0.88;;;22.60;99.90;;;;;;5007427;28;20414;-68
2023/07/25 10:51:01;;;;;;;4.68;0.77;;;22.30;1.00;;;;;;5030713;28;20766;-68
2023/07/25 10:53:27;;;;;;;5.13;0.80;;;22.10;1.00;;;;;;5030587;28;20921;-68
2023/07/25 10:56:04;;;;;;;4.60;0.73;;;22.30;1.00;;;;;;5035020;28;20405;-68
2023/07/25 10:59:03;;;;;;;4.70;0.80;;;22.30;1.00;;;;;;5056204;28;20397;-68
2023/07/25 11:01:47;;;;;;;5.13;0.90;;;22.40;1.00;;;;;;5054546;28;20438;-69
2023/07/25 11:04:31;;;;;;;4.80;0.52;;;22.70;1.00;;;;;;5070033;28;20407;-69
2023/07/25 11:07:11;;;;;;;4.60;0.70;;;22.60;1.00;;;;;;5069385;28;20419;-69
2023/07/25 11:09:43;;;;;;;5.50;1.20;;;23.10;1.00;;;;;;5068508;28;20416;-70
2023/07/25 11:12:13;;;;;;;4.57;0.60;;;23.40;1.00;;;;;;5070127;28;20422;-69
2023/07/25 11:14:43;;;;;;;5.88;1.02;;;23.20;99.90;;;;;;5084993;28;20401;-69
2023/07/25 11:17:10;;;;;;;4.60;0.70;;;23.20;1.00;;;;;;5090217;28;20801;-69
2023/07/25 11:19:36;;;;;;;4.72;0.77;;;23.50;99.90;;;;;;5081321;28;20511;-69
2023/07/25 11:22:11;;;;;;;8.57;0.90;;;23.50;99.90;;;;;;5067570;28;20819;-69
2023/07/25 11:24:44;;;;;;;5.87;0.70;;;23.70;1.00;;;;;;5069207;28;20917;-69
2023/07/25 11:27:11;;;;;;;4.80;0.85;;;23.60;99.90;;;;;;5069380;28;20384;-69
2023/07/25 11:29:37;;;;;;;5.05;1.10;;;23.70;99.90;;;;;;5068541;28;20464;-70
2023/07/25 11:32:02;;;;;;;4.80;0.73;;;24.10;99.90;;;;;;5068642;28;20803;-69
2023/07/25 11:34:28;;;;;;;4.90;1.00;;;24.20;99.90;;;;;;5069415;28;20403;-69
2023/07/25 11:36:54;;;;;;;4.90;0.80;;;23.90;99.90;;;;;;5051153;28;20400;-69
2023/07/25 11:39:21;;;;;;;7.18;1.20;;;23.80;99.90;;;;;;5069875;28;20488;-69
2023/07/25 11:41:47;;;;;;;5.65;1.10;;;23.70;1.00;;;;;;5069219;28;20395;-69
2023/07/25 11:44:14;;;;;;;5.43;1.00;;;23.80;1.00;;;;;;5069329;28;20388;-69
2023/07/25 11:46:43;;;;;;;7.20;1.10;;;24.20;1.00;;;;;;5068797;28;20901;-70
2023/07/25 11:49:11;;;;;;;5.03;0.90;;;24.30;1.00;;;;;;5068540;28;20419;-70
2023/07/25 11:51:37;;;;;;;4.70;0.80;;;23.30;1.00;;;;;;5069280;28;20383;-69
2023/07/25 11:54:04;;;;;;;4.38;0.50;;;22.10;1.00;;;;;;5045065;28;20461;-69
2023/07/25 11:56:31;;;;;;;4.90;0.70;;;20.70;99.90;;;;;;5063722;28;20458;-69
2023/07/25 11:58:59;;;;;;;4.82;0.70;;;19.90;99.90;;;;;;5068154;28;20431;-68
2023/07/25 12:01:29;;;;;;;6.90;1.20;;;19.50;1.00;;;;;;5066639;28;20419;-69
2023/07/25 12:03:55;;;;;;;4.75;0.90;;;19.20;99.90;;;;;;5069714;28;20391;-68
2023/07/25 12:06:31;;;;;;;4.50;0.80;;;19.20;99.90;;;;;;5066794;28;20396;-68
2023/07/25 12:08:57;;;;;;;4.60;0.70;;;18.90;1.00;;;;;;5065251;28;20415;-69
2023/07/25 12:11:22;;;;;;;4.67;0.90;;;18.50;99.90;;;;;;5068356;28;20445;-68
2023/07/25 12:13:50;;;;;;;6.50;1.20;;;18.30;1.00;;;;;;5064800;28;20404;-69
2023/07/25 12:16:25;;;;;;;4.80;1.10;;;18.30;1.00;;;;;;5054845;28;20488;-69
2023/07/25 12:18:55;;;;;;;5.10;1.20;;;18.30;1.00;;;;;;5048604;28;20389;-68
2023/07/25 12:21:23;;;;;;;4.10;0.70;;;18.40;1.00;;;;;;5048681;28;20443;-69
2023/07/25 12:23:51;;;;;;;5.95;1.20;;;18.50;1.00;;;;;;5048729;28;20820;-69
2023/07/25 12:26:20;;;;;;;4.45;0.88;;;18.50;1.00;;;;;;5062882;28;20478;-69
2023/07/25 12:28:46;;;;;;;4.40;0.88;;;18.60;1.00;;;;;;5060126;28;20417;-69
2023/07/25 12:31:13;;;;;;;5.15;1.10;;;18.40;1.00;;;;;;5063395;28;20486;-69
2023/07/25 12:33:40;;;;;;;4.40;0.87;;;18.40;1.00;;;;;;5068499;28;20376;-70
2023/07/25 12:36:06;;;;;;;4.60;0.95;;;18.10;1.00;;;;;;5067473;28;20406;-70
2023/07/25 12:38:32;;;;;;;5.05;0.80;;;18.00;1.00;;;;;;5068730;28;20391;-69
2023/07/25 12:40:59;;;;;;;6.00;0.90;;;17.80;17.50;;;;;;5066111;28;20404;-68
2023/07/25 12:43:25;;;;;;;5.40;0.90;;;17.60;41.40;;;;;;5067229;28;20405;-69
2023/07/25 12:45:51;;;;;;;4.40;0.90;;;17.30;99.90;;;;;;5065866;28;20414;-69
2023/07/25 12:48:16;;;;;;;4.10;0.70;;;17.30;99.90;;;;;;5065890;28;20400;-69